Latest Weather Observations for Bellambi

IDN60901

Issued at 11:25 pm EST Thursday 24 April 2014 (issued every 10 minutes, with the page automatically refreshed every 10 minutes)

About weather observations | Map of Sydney area stations | Latest observations for Sydney area | Other Formats
Station Details ID: 068228 Name: BELLAMBI AWS Lat: -34.37 Lon: 150.93 Height: 10.0 m
Data from the previous 72 hours. | See also: Recent months at Bellambi
Date/Time
EST
Tmp

°C
App
Tmp
°C
Dew
Point
°C
Rel
Hum
%
Delta-T

°C
Wind Press
QNH
hPa
Press
MSL
hPa
Rain
since
9 am
mm
Dir
 
Spd
km/h
Gust
km/h
Spd
kts
Gust
kts
24/11:11pm 18.9 16.0 17.0 89 1.1 SSW 28 46 15 25 - - 7.0
24/11:00pm 18.8 15.3 17.5 92 0.8 S 32 41 17 22 - - 7.0
24/10:37pm 18.1 12.5 16.4 90 1.0 S 41 59 22 32 - - 4.6
24/10:30pm 19.1 14.6 16.5 85 1.6 SSW 35 50 19 27 - - 0.2
24/10:00pm 19.6 15.4 16.1 80 2.1 SSW 33 44 18 24 - - 0.0
24/09:52pm 20.2 15.5 15.8 76 2.6 S 35 44 19 24 - - 0.0
24/09:30pm 21.0 16.1 16.4 75 2.8 SSE 37 44 20 24 - - 0.0
24/09:00pm 21.4 17.9 16.4 73 3.0 S 30 41 16 22 - - 0.0
24/08:30pm 21.6 15.7 12.5 56 5.2 S 35 48 19 26 - - 0.0
24/08:24pm 21.7 17.1 13.6 60 4.7 S 30 44 16 24 - - 0.0
24/08:00pm 20.7 18.4 10.5 52 5.5 SW 13 17 7 9 - - 0.0
24/07:30pm 21.4 19.0 9.9 48 6.2 WSW 13 15 7 8 - - 0.0
24/07:00pm 22.3 19.7 9.5 44 6.9 WSW 13 17 7 9 - - 0.0
24/06:30pm 22.3 19.3 9.1 43 7.1 WSW 15 19 8 10 - - 0.0
24/06:00pm 22.7 20.0 8.8 41 7.4 WSW 13 15 7 8 - - 0.0
24/05:30pm 23.3 20.4 8.2 38 8.0 WSW 13 17 7 9 - - 0.0
24/05:00pm 24.6 23.2 10.8 42 7.7 W 9 13 5 7 - - 0.0
24/04:30pm 24.6 23.2 13.5 50 6.5 SSW 13 17 7 9 - - 0.0
24/04:00pm 23.7 22.3 17.0 66 4.1 SE 20 24 11 13 - - 0.0
24/03:30pm 26.5 23.9 10.6 37 8.9 S 15 28 8 15 - - 0.0
24/03:00pm 28.2 25.9 7.4 27 11.2 WSW 9 19 5 10 - - 0.0
24/02:30pm 25.7 23.4 11.8 42 7.9 N 15 30 8 16 - - 0.0
24/02:00pm 26.4 24.3 9.7 35 9.2 N 11 19 6 10 - - 0.0
24/01:30pm 25.1 24.5 13.6 49 6.7 ESE 9 13 5 7 - - 0.0
24/01:00pm 26.7 24.2 8.2 31 10.0 ENE 11 17 6 9 - - 0.0
24/12:30pm 26.8 25.5 9.2 33 9.7 N 6 15 3 8 - - 0.0
24/12:00pm 25.8 22.7 8.8 34 9.2 WNW 15 20 8 11 - - 0.0
24/11:30am 25.0 20.6 7.6 33 9.2 WNW 20 32 11 17 - - 0.0
24/11:00am 23.8 17.3 6.6 33 8.9 WNW 30 39 16 21 - - 0.0
24/10:30am 22.7 16.8 7.3 37 8.0 WNW 28 37 15 20 - - 0.0
24/10:00am 22.4 15.6 7.0 37 7.9 NW 32 44 17 24 - - 0.0
24/09:30am 22.5 15.4 5.4 33 8.5 WNW 32 41 17 22 - - 0.0
24/09:00am 22.5 16.2 5.9 34 8.4 NW 28 37 15 20 - - 0.2
24/08:30am 22.3 16.1 6.1 35 8.2 NW 28 33 15 18 - - 0.2
24/08:00am 21.6 15.3 5.9 36 7.9 NW 28 35 15 19 - - 0.2
24/07:30am 20.4 16.4 6.7 41 6.9 WNW 17 26 9 14 - - 0.2
24/07:00am 19.6 18.1 6.7 43 6.5 W 4 15 2 8 - - 0.2
24/06:30am 19.3 16.8 8.3 49 5.7 N 11 15 6 8 - - 0.2
24/06:00am 19.3 15.4 9.5 53 5.2 N 20 28 11 15 - - 0.2
24/05:30am 19.2 15.1 10.2 56 4.8 NNW 22 28 12 15 - - 0.2
24/05:00am 19.8 15.5 9.4 51 5.5 N 22 28 12 15 - - 0.2
24/04:30am 19.7 18.1 10.1 54 5.2 NW 9 13 5 7 - - 0.2
24/04:00am 19.0 18.5 9.5 54 5.0 NW 2 7 1 4 - - 0.2
24/03:30am 19.5 17.1 11.3 59 4.5 NNW 15 22 8 12 - - 0.2
24/03:00am 18.8 15.8 10.6 59 4.4 NW 17 20 9 11 - - 0.2
24/02:30am 18.8 17.3 9.3 54 5.0 WNW 7 13 4 7 - - 0.2
24/02:00am 18.8 18.9 10.1 57 4.6 CALM 0 4 0 2 - - 0.2
24/01:30am 19.1 17.8 9.9 55 4.9 NW 7 13 4 7 - - 0.2
24/01:00am 19.7 19.7 9.9 53 5.2 CALM 0 6 0 3 - - 0.2
24/12:30am 19.6 19.7 10.0 54 5.1 CALM 0 6 0 3 - - 0.2
24/12:00am 19.1 18.0 9.9 55 4.9 SW 6 9 3 5 - - 0.2
 
Date/Time
EST
Tmp

°C
App
Tmp
°C
Dew
Point
°C
Rel
Hum
%
Delta-T

°C
Wind Press
QNH
hPa
Press
MSL
hPa
Rain
since
9 am
mm
Dir
 
Spd
km/h
Gust
km/h
Spd
kts
Gust
kts
23/11:30pm 19.7 19.8 10.1 54 5.2 CALM 0 6 0 3 - - 0.2
23/11:00pm 20.0 19.3 9.9 52 5.4 WNW 4 9 2 5 - - 0.2
23/10:30pm 19.3 18.2 9.8 54 5.1 WNW 6 9 3 5 - - 0.2
23/10:00pm 19.2 18.3 11.3 60 4.3 NW 7 9 4 5 - - 0.2
23/09:30pm 19.9 18.0 11.7 59 4.5 NW 13 17 7 9 - - 0.2
23/09:00pm 21.6 18.4 11.3 52 5.7 N 19 22 10 12 - - 0.2
23/08:30pm 19.7 19.0 13.2 66 3.7 N 9 13 5 7 - - 0.2
23/08:00pm 18.7 18.6 13.8 73 2.8 NNW 7 11 4 6 - - 0.2
23/07:30pm 18.7 18.6 14.0 74 2.7 NW 7 9 4 5 - - 0.2
23/07:00pm 19.2 20.0 14.7 75 2.6 NW 4 7 2 4 - - 0.2
23/06:30pm 19.5 19.6 14.5 73 2.9 WNW 7 9 4 5 - - 0.2
23/06:00pm 21.0 21.7 16.2 74 2.9 N 7 13 4 7 - - 0.2
23/05:30pm 21.0 20.7 15.5 71 3.3 N 11 13 6 7 - - 0.2
23/05:00pm 21.4 19.9 15.3 68 3.6 N 17 22 9 12 - - 0.0
23/04:30pm 21.8 20.1 14.7 64 4.2 NNE 17 20 9 11 - - 0.0
23/04:00pm 21.4 20.1 13.6 61 4.5 NNE 13 15 7 8 - - 0.0
23/03:30pm 22.7 21.7 13.5 56 5.3 NNE 11 15 6 8 - - 0.0
23/03:00pm 23.1 22.1 13.3 54 5.7 NNE 11 13 6 7 - - 0.0
23/02:30pm 23.6 22.6 13.5 53 5.9 NNE 11 15 6 8 - - 0.0
23/02:00pm 23.7 22.7 13.3 52 6.0 NNE 11 15 6 8 - - 0.0
23/01:30pm 23.2 21.6 12.8 52 6.0 NE 13 17 7 9 - - 0.0
23/01:00pm 22.7 21.7 12.3 52 5.9 NE 9 13 5 7 - - 0.0
23/12:30pm 23.0 21.8 12.9 53 5.8 E 11 13 6 7 - - 0.0
23/12:00pm 23.2 22.7 13.7 55 5.5 ESE 9 11 5 6 - - 0.0
23/11:30am 23.6 22.5 12.0 48 6.6 ENE 9 11 5 6 - - 0.0
23/11:00am 22.8 22.0 11.8 50 6.2 E 7 9 4 5 - - 0.0
23/10:30am 22.2 21.4 11.0 49 6.2 ESE 6 7 3 4 - - 0.0
23/10:00am 22.7 22.6 10.8 47 6.6 N 2 6 1 3 - - 0.0
23/09:30am 21.6 20.8 11.0 51 5.8 NNW 6 7 3 4 - - 0.0
23/09:00am 20.4 20.4 11.3 56 5.0 WNW 2 7 1 4 - - 0.0
23/08:30am 19.3 17.5 10.8 58 4.6 NW 11 13 6 7 - - 0.0
23/08:00am 18.3 17.3 10.9 62 4.0 NNW 7 9 4 5 - - 0.0
23/07:30am 17.4 16.1 9.8 61 4.0 WNW 7 9 4 5 - - 0.0
23/07:00am 15.8 14.3 9.0 64 3.5 NW 7 9 4 5 - - 0.0
23/06:30am 15.4 13.8 8.2 62 3.6 WNW 6 9 3 5 - - 0.0
23/06:00am 15.8 13.6 7.8 59 4.0 WNW 9 11 5 6 - - 0.0
23/05:30am 15.8 13.2 7.8 59 4.0 WNW 11 13 6 7 - - 0.0
23/05:00am 15.8 13.2 7.6 58 4.1 WNW 11 13 6 7 - - 0.0
23/04:30am 16.1 13.8 7.3 56 4.4 WNW 9 11 5 6 - - 0.0
23/04:00am 16.1 13.6 8.3 60 4.0 NW 11 13 6 7 - - 0.0
23/03:30am 16.1 13.4 7.3 56 4.4 WNW 11 13 6 7 - - 0.0
23/03:00am 16.4 14.3 8.1 58 4.2 NW 9 13 5 7 - - 0.0
23/02:30am 16.5 14.7 8.0 57 4.3 NNW 7 11 4 6 - - 0.0
23/02:00am 17.2 15.0 6.4 49 5.3 WNW 7 9 4 5 - - 0.0
23/01:30am 17.6 15.4 6.2 47 5.6 W 7 11 4 6 - - 0.0
23/01:00am 17.7 14.7 5.9 46 5.8 W 11 13 6 7 - - 0.0
23/12:30am 17.9 14.8 5.5 44 6.0 W 11 13 6 7 - - 0.0
23/12:00am 17.9 15.3 6.1 46 5.8 NW 9 11 5 6 - - 0.0
 
Date/Time
EST
Tmp

°C
App
Tmp
°C
Dew
Point
°C
Rel
Hum
%
Delta-T

°C
Wind Press
QNH
hPa
Press
MSL
hPa
Rain
since
9 am
mm
Dir
 
Spd
km/h
Gust
km/h
Spd
kts
Gust
kts
22/11:30pm 18.2 15.7 6.7 47 5.7 NW 9 15 5 8 - - 0.0
22/11:00pm 19.0 15.8 5.1 40 6.7 WNW 11 20 6 11 - - 0.0
22/10:30pm 19.4 15.1 5.1 39 7.0 W 17 26 9 14 - - 0.0
22/10:00pm 19.2 16.5 5.6 41 6.7 SW 9 17 5 9 - - 0.0
22/09:30pm 19.4 18.6 6.5 43 6.5 CALM 0 13 0 7 - - 0.0
22/09:00pm 20.6 15.6 6.5 40 7.1 SSW 22 37 12 20 - - 0.0
22/08:30pm 19.7 17.1 7.8 46 6.1 SW 11 19 6 10 - - 0.0
22/08:00pm 19.7 18.6 8.4 48 5.9 SSW 4 13 2 7 - - 0.0
22/07:30pm 20.1 17.7 8.8 48 5.9 SW 11 19 6 10 - - 0.0
22/07:00pm 20.9 19.3 10.1 50 5.8 NW 9 19 5 10 - - 0.0
22/06:30pm 20.8 19.6 10.3 51 5.7 W 7 13 4 7 - - 0.0
22/06:00pm 20.6 19.9 12.1 58 4.8 WNW 7 13 4 7 - - 0.0
22/05:30pm 22.8 20.2 10.6 46 6.7 NNW 15 19 8 10 - - 0.0
22/05:00pm 21.7 21.0 15.3 67 3.8 N 13 15 7 8 - - 0.0
22/04:30pm 22.1 21.7 15.2 65 4.1 N 11 13 6 7 - - 0.0
22/04:00pm 22.2 22.4 14.6 62 4.5 NNE 7 9 4 5 - - 0.0
22/03:30pm 22.6 21.9 14.4 60 4.8 NNE 11 13 6 7 - - 0.0
22/03:00pm 22.9 22.4 13.7 56 5.4 NNE 9 11 5 6 - - 0.0
22/02:30pm 22.6 21.4 12.8 54 5.6 NE 11 15 6 8 - - 0.0
22/02:00pm 23.5 21.9 12.8 51 6.1 NE 13 15 7 8 - - 0.0
22/01:30pm 23.0 21.2 12.0 50 6.2 NE 13 17 7 9 - - 0.0
22/01:00pm 23.0 21.3 12.3 51 6.1 ENE 13 17 7 9 - - 0.0
22/12:30pm 23.3 21.0 11.7 48 6.5 E 15 19 8 10 - - 0.0
22/12:00pm 24.2 21.2 9.4 39 8.0 NW 15 22 8 12 - - 0.0
22/11:30am 23.9 21.4 10.9 44 7.2 NW 15 20 8 11 - - 0.0
22/11:00am 22.2 19.1 10.4 47 6.5 NW 17 24 9 13 - - 0.0
22/10:30am 21.8 18.2 10.6 49 6.1 NW 20 28 11 15 - - 0.0
22/10:00am 21.1 17.4 10.0 49 6.0 NW 20 32 11 17 - - 0.0
22/09:30am 20.0 15.4 9.6 51 5.5 NW 24 33 13 18 - - 0.0
22/09:00am 19.3 15.6 10.0 55 5.0 NW 20 30 11 16 - - 0.0
22/08:30am 17.9 13.3 9.8 59 4.3 NW 24 33 13 18 - - 0.0
22/08:00am 17.3 13.4 9.5 60 4.1 NW 20 28 11 15 - - 0.0
22/07:30am 16.9 13.0 9.6 62 3.8 NW 20 26 11 14 - - 0.0
22/07:00am 16.6 12.9 9.3 62 3.8 NW 19 22 10 12 - - 0.0
22/06:30am 16.2 12.4 8.9 62 3.7 NW 19 28 10 15 - - 0.0
22/06:00am 16.0 13.2 8.7 62 3.7 NW 13 17 7 9 - - 0.0
22/05:30am 16.4 13.4 9.3 63 3.7 NW 15 20 8 11 - - 0.0
22/05:00am 15.9 13.3 9.3 65 3.4 NW 13 20 7 11 - - 0.0
22/04:30am 16.0 13.9 9.7 66 3.3 NW 11 15 6 8 - - 0.0
22/04:00am 16.2 14.5 9.8 66 3.3 NW 9 13 5 7 - - 0.0
22/03:30am 16.5 14.4 11.0 70 2.9 NW 13 17 7 9 - - 0.0
22/03:00am 16.7 14.4 11.8 73 2.7 NW 15 19 8 10 - - 0.0
22/02:30am 16.8 14.9 11.9 73 2.7 NW 13 17 7 9 - - 0.0
22/02:00am 16.7 14.7 11.4 71 2.9 WNW 13 17 7 9 - - 0.0
22/01:30am 17.2 15.7 11.9 71 2.9 NW 11 15 6 8 - - 0.0
22/01:00am 16.9 15.2 12.6 76 2.4 NW 13 20 7 11 - - 0.0
22/12:30am 16.9 14.7 12.2 74 2.6 NW 15 19 8 10 - - 0.0
22/12:00am 16.6 14.7 11.7 73 2.7 WNW 13 17 7 9 - - 0.0
 
Date/Time
EST
Tmp

°C
App
Tmp
°C
Dew
Point
°C
Rel
Hum
%
Delta-T

°C
Wind Press
QNH
hPa
Press
MSL
hPa
Rain
since
9 am
mm
Dir
 
Spd
km/h
Gust
km/h
Spd
kts
Gust
kts
21/11:30pm 16.9 15.1 12.0 73 2.7 NW 13 17 7 9 - - 0.0

Latest Capital City Observations: Canberra | Sydney | Melbourne | Brisbane | Adelaide | Perth | Hobart | Darwin

Other Formats:

Comma delimited format used in spreadsheet applications
http://www.bom.gov.au/fwo/IDN60901/IDN60901.94749.axf

JavaScript Object Notation format (JSON) in row-major order
http://www.bom.gov.au/fwo/IDN60901/IDN60901.94749.json